Terminal Aerodrome Forecast
Issued by NWS

Home | Current Version | Previous Version | Text Only | Print | Product List | Glossary On
Versions: 1 2 3 4 5 6 7 8 9 10 11 12 13 14
000
FTUS45 KRIW 201509 AAA
TAFCPR
TAF AMD
KCPR 201509Z 2015/2112 23009KT 1SM -SN BR FEW015 OVC025
      TEMPO 2015/2017 3SM -SN BKN025
     FM202000 24008KT P6SM SCT035 OVC080
     FM210300 22006KT P6SM SCT080 BKN150=

USA.gov is the U.S. government's official web portal to all federal, state and local government web resources and services.